createdAt,value
2023-07-10T00:00:47.974Z,21.10
2023-07-10T00:04:51.415Z,21.08
2023-07-10T00:08:54.229Z,21.01
2023-07-10T00:12:57.083Z,20.94
2023-07-10T00:17:01.431Z,20.98
2023-07-10T00:21:04.606Z,20.90
2023-07-10T00:25:08.433Z,20.84
2023-07-10T00:29:17.415Z,20.77
2023-07-10T00:33:22.394Z,20.75
2023-07-10T00:37:25.307Z,20.80
2023-07-10T00:41:33.521Z,20.74
2023-07-10T00:45:36.431Z,20.75
2023-07-10T00:49:48.622Z,20.66
2023-07-10T00:53:54.523Z,20.60
2023-07-10T00:58:20.093Z,20.61
2023-07-10T01:02:33.964Z,20.58
2023-07-10T01:06:39.319Z,20.50
2023-07-10T01:10:42.493Z,20.52
2023-07-10T01:14:46.714Z,20.56
2023-07-10T01:18:50.739Z,20.57
2023-07-10T01:22:55.040Z,20.58
2023-07-10T01:26:58.956Z,20.57
2023-07-10T01:31:05.246Z,20.64
2023-07-10T01:35:10.931Z,20.63
2023-07-10T01:39:37.865Z,20.60
2023-07-10T01:43:44.773Z,20.63
2023-07-10T01:47:48.715Z,20.60
2023-07-10T01:51:52.460Z,20.63
2023-07-10T01:55:56.615Z,20.68
2023-07-10T02:00:00.836Z,20.68
2023-07-10T02:04:06.514Z,20.75
2023-07-10T02:08:09.889Z,20.70
2023-07-10T02:12:14.206Z,20.63
2023-07-10T02:16:17.453Z,20.57
2023-07-10T02:20:20.340Z,20.64
2023-07-10T02:24:23.125Z,20.64
2023-07-10T02:28:27.332Z,20.57
2023-07-10T02:32:30.444Z,20.51
2023-07-10T02:36:33.329Z,20.42
2023-07-10T02:40:36.189Z,20.39
2023-07-10T02:44:41.542Z,20.37
2023-07-10T02:48:44.397Z,20.38
2023-07-10T02:52:47.233Z,20.48
2023-07-10T02:56:50.241Z,20.52
2023-07-10T03:00:59.196Z,20.42
2023-07-10T03:05:02.195Z,20.32
2023-07-10T03:09:05.433Z,20.21
2023-07-10T03:13:08.308Z,20.14
2023-07-10T03:17:12.508Z,20.15
2023-07-10T03:21:15.363Z,20.08
2023-07-10T03:25:18.292Z,20.13
2023-07-10T03:29:21.129Z,20.14
2023-07-10T03:33:25.396Z,20.23
2023-07-10T03:37:28.234Z,20.24
2023-07-10T03:41:31.171Z,20.17
2023-07-10T03:45:34.052Z,20.17
2023-07-10T03:49:38.250Z,20.21
2023-07-10T03:53:41.206Z,20.22
2023-07-10T03:57:44.052Z,20.23
2023-07-10T04:01:46.901Z,20.31
2023-07-10T04:05:53.784Z,20.38
2023-07-10T04:09:57.290Z,20.40
2023-07-10T04:14:00.141Z,20.43
2023-07-10T04:18:03.021Z,20.46
2023-07-10T04:22:07.577Z,20.49
2023-07-10T04:26:16.718Z,20.53
2023-07-10T04:30:19.584Z,20.56
2023-07-10T04:34:24.348Z,20.61
2023-07-10T04:38:30.348Z,20.68
2023-07-10T04:42:33.359Z,20.71
2023-07-10T04:46:36.833Z,20.74
2023-07-10T04:50:39.689Z,20.72
2023-07-10T04:54:43.888Z,20.72
2023-07-10T04:58:50.870Z,20.65
2023-07-10T05:02:55.059Z,20.57
2023-07-10T05:06:59.311Z,20.55
2023-07-10T05:11:03.877Z,20.53
2023-07-10T05:15:07.942Z,20.48
2023-07-10T05:19:10.885Z,20.54
2023-07-10T05:23:14.286Z,20.56
2023-07-10T05:27:18.421Z,20.60
2023-07-10T05:31:21.499Z,20.67
2023-07-10T05:35:25.429Z,20.72
2023-07-10T05:39:32.134Z,20.78
2023-07-10T05:43:38.382Z,20.76
2023-07-10T05:47:41.449Z,20.77
2023-07-10T05:51:44.346Z,20.72
2023-07-10T05:55:48.275Z,20.67
2023-07-10T05:59:54.284Z,20.64
2023-07-10T06:03:57.427Z,20.67
2023-07-10T06:08:00.397Z,20.67
2023-07-10T06:12:04.351Z,20.70
2023-07-10T06:16:12.127Z,20.70
2023-07-10T06:20:16.589Z,20.73
2023-07-10T06:24:19.952Z,20.80
2023-07-10T06:28:23.317Z,20.91
2023-07-10T06:32:28.353Z,21.09
2023-07-10T06:36:31.504Z,21.25
2023-07-10T06:40:34.569Z,21.36
2023-07-10T06:44:37.650Z,21.50
2023-07-10T06:48:43.966Z,21.62
2023-07-10T06:52:48.019Z,21.59
2023-07-10T06:56:52.210Z,21.70
2023-07-10T07:00:56.068Z,21.71
2023-07-10T07:05:00.640Z,21.74
2023-07-10T07:09:04.124Z,21.70
2023-07-10T07:13:06.962Z,21.79
2023-07-10T07:17:10.244Z,21.94
2023-07-10T07:21:15.902Z,22.00
2023-07-10T07:25:19.433Z,22.20
2023-07-10T07:29:22.352Z,22.46
2023-07-10T07:33:25.480Z,22.84
2023-07-10T07:37:29.845Z,23.49
2023-07-10T07:41:33.160Z,24.16
2023-07-10T07:45:36.331Z,24.56
2023-07-10T07:49:39.272Z,24.26
2023-07-10T07:53:43.423Z,24.26
2023-07-10T07:57:46.681Z,24.44
2023-07-10T08:01:49.938Z,24.43
2023-07-10T08:05:53.588Z,24.79
2023-07-10T08:10:00.035Z,25.30
2023-07-10T08:14:03.357Z,25.77
2023-07-10T08:18:06.746Z,26.04
2023-07-10T08:22:09.626Z,26.34
2023-07-10T08:26:14.199Z,26.57
2023-07-10T08:30:17.531Z,26.45
2023-07-10T08:34:21.190Z,26.57
2023-07-10T08:38:24.222Z,26.88
2023-07-10T08:42:32.514Z,27.10
2023-07-10T08:46:35.771Z,27.24
2023-07-10T08:50:40.743Z,27.24
2023-07-10T08:54:47.383Z,27.29
2023-07-10T08:58:52.736Z,27.53
2023-07-10T09:03:07.318Z,27.90
2023-07-10T09:07:11.972Z,28.13
2023-07-10T09:11:15.441Z,28.39
2023-07-10T09:15:26.576Z,28.70
2023-07-10T09:19:32.439Z,28.86
2023-07-10T09:23:36.376Z,29.14
2023-07-10T09:27:39.250Z,29.23
2023-07-10T09:31:50.481Z,29.24
2023-07-10T09:35:54.106Z,29.38
2023-07-10T09:39:57.036Z,29.49
2023-07-10T09:44:02.350Z,29.40
2023-07-10T09:48:15.079Z,29.31
2023-07-10T09:52:24.143Z,29.50
2023-07-10T09:56:29.186Z,29.86
2023-07-10T10:00:35.661Z,29.54
2023-07-10T10:04:43.962Z,29.33
2023-07-10T10:08:48.472Z,29.45
2023-07-10T10:13:05.486Z,29.41
2023-07-10T10:17:14.064Z,29.32
2023-07-10T10:21:21.295Z,29.48
2023-07-10T10:25:34.625Z,29.63
2023-07-10T10:29:57.336Z,29.86
2023-07-10T10:34:06.840Z,29.76
2023-07-10T10:38:31.534Z,29.61
2023-07-10T10:42:43.663Z,29.63
2023-07-10T10:47:03.335Z,29.48
2023-07-10T10:51:18.447Z,29.22
2023-07-10T10:55:34.433Z,29.46
2023-07-10T10:59:48.179Z,29.57
2023-07-10T11:03:56.531Z,29.80
2023-07-10T11:08:05.583Z,29.89
2023-07-10T11:12:18.139Z,29.61
2023-07-10T11:16:22.266Z,29.13
2023-07-10T11:20:27.687Z,29.24
2023-07-10T11:24:35.346Z,28.95
2023-07-10T11:29:05.655Z,29.04
2023-07-10T11:33:18.818Z,29.46
2023-07-10T11:38:06.758Z,29.56
2023-07-10T11:42:18.540Z,29.43
2023-07-10T11:50:57.180Z,29.21
2023-07-10T11:55:10.266Z,29.55
2023-07-10T11:59:21.697Z,29.86
2023-07-10T12:03:24.846Z,29.97
2023-07-10T12:07:29.902Z,29.98
2023-07-10T12:11:34.921Z,30.23
2023-07-10T12:15:39.104Z,30.13
2023-07-10T12:19:44.045Z,30.34
2023-07-10T12:24:01.897Z,30.39
2023-07-10T12:32:17.996Z,29.91
2023-07-10T12:36:26.291Z,29.64
2023-07-10T12:40:33.325Z,29.79
2023-07-10T12:44:46.156Z,30.16
2023-07-10T12:48:54.390Z,30.03
2023-07-10T12:52:57.255Z,30.00
2023-07-10T12:57:02.207Z,29.80
2023-07-10T13:01:19.890Z,30.12
2023-07-10T13:05:25.514Z,29.98
2023-07-10T13:09:31.909Z,29.84
2023-07-10T13:13:40.466Z,29.61
2023-07-10T13:17:48.354Z,29.51
2023-07-10T13:21:51.561Z,29.54
2023-07-10T13:25:56.732Z,29.70
2023-07-10T13:30:01.607Z,30.12
2023-07-10T13:34:05.949Z,30.21
2023-07-10T13:38:13.077Z,29.88
2023-07-10T13:42:16.733Z,29.54
2023-07-10T13:46:26.700Z,29.13
2023-07-10T13:50:29.537Z,29.33
2023-07-10T13:54:33.320Z,29.61
2023-07-10T13:58:36.353Z,29.47
2023-07-10T14:02:44.417Z,29.32
2023-07-10T14:06:48.496Z,29.27
2023-07-10T14:10:52.603Z,29.43
2023-07-10T14:14:55.889Z,29.73
2023-07-10T14:19:00.575Z,29.69
2023-07-10T14:23:03.522Z,29.41
2023-07-10T14:27:17.663Z,29.12
2023-07-10T14:31:22.111Z,29.00
2023-07-10T14:35:31.513Z,28.62
2023-07-10T14:39:37.055Z,28.40
2023-07-10T14:43:40.493Z,28.11
2023-07-10T14:47:45.393Z,27.98
2023-07-10T14:51:49.762Z,27.86
2023-07-10T14:55:54.833Z,27.71
2023-07-10T14:59:58.433Z,27.73
2023-07-10T15:04:01.449Z,27.93
2023-07-10T15:08:07.345Z,27.92
2023-07-10T15:12:13.175Z,28.09
2023-07-10T15:16:18.899Z,28.43
2023-07-10T15:20:28.251Z,28.60
2023-07-10T15:24:51.552Z,28.64
2023-07-10T15:28:57.301Z,28.97
2023-07-10T15:33:07.371Z,28.94
2023-07-10T15:37:21.763Z,28.92
2023-07-10T15:41:33.685Z,28.99
2023-07-10T15:45:43.935Z,28.92
2023-07-10T15:49:48.407Z,28.80
2023-07-10T15:53:51.456Z,28.44
2023-07-10T15:58:02.071Z,28.32
2023-07-10T16:02:12.904Z,28.26
2023-07-10T16:06:16.138Z,28.14
2023-07-10T16:10:21.634Z,28.16
2023-07-10T16:14:29.649Z,28.15
2023-07-10T16:18:34.638Z,28.28
2023-07-10T16:22:40.545Z,28.17
2023-07-10T16:26:46.822Z,28.13
2023-07-10T16:30:52.631Z,28.19
2023-07-10T16:34:56.761Z,28.28
2023-07-10T16:39:00.961Z,28.29
2023-07-10T16:43:13.032Z,28.19
2023-07-10T16:47:19.793Z,28.16
2023-07-10T16:51:26.016Z,27.95
2023-07-10T16:55:30.842Z,27.74
2023-07-10T16:59:33.764Z,27.79
2023-07-10T17:03:38.246Z,27.81
2023-07-10T17:07:44.707Z,27.83
2023-07-10T17:12:01.968Z,27.92
2023-07-10T17:16:25.950Z,27.87
2023-07-10T17:20:50.336Z,27.77
2023-07-10T17:25:14.403Z,27.75
2023-07-10T17:29:35.434Z,27.77
2023-07-10T17:33:50.683Z,27.83
2023-07-10T17:38:14.937Z,27.81
2023-07-10T17:42:37.407Z,27.67
2023-07-10T17:46:53.224Z,27.59
2023-07-10T17:51:07.664Z,27.48
2023-07-10T17:55:20.253Z,27.45
2023-07-10T17:59:23.518Z,27.37
2023-07-10T18:03:34.848Z,27.29
2023-07-10T18:07:39.534Z,27.21
2023-07-10T18:11:44.315Z,27.20
2023-07-10T18:16:07.977Z,27.11
2023-07-10T18:20:13.571Z,26.92
2023-07-10T18:24:20.177Z,26.78
2023-07-10T18:28:27.274Z,26.63
2023-07-10T18:32:30.477Z,26.45
2023-07-10T18:36:34.060Z,26.42
2023-07-10T18:40:39.023Z,26.36
2023-07-10T18:44:44.450Z,26.34
2023-07-10T18:48:48.403Z,26.29
2023-07-10T18:52:51.519Z,26.16
2023-07-10T18:56:54.565Z,26.08
2023-07-10T19:01:04.224Z,26.03
2023-07-10T19:05:09.242Z,25.96
2023-07-10T19:09:18.546Z,25.80
2023-07-10T19:13:23.708Z,25.64
2023-07-10T19:17:34.052Z,25.48
2023-07-10T19:21:37.416Z,25.38
2023-07-10T19:25:41.937Z,25.28
2023-07-10T19:29:45.920Z,25.22
2023-07-10T19:33:51.599Z,25.16
2023-07-10T19:38:03.909Z,25.07
2023-07-10T19:42:21.900Z,25.00
2023-07-10T19:46:39.160Z,24.89
2023-07-10T19:50:58.092Z,24.80
2023-07-10T19:55:04.797Z,24.70
2023-07-10T19:59:12.128Z,24.60
2023-07-10T20:03:18.573Z,24.51
2023-07-10T20:07:23.358Z,24.43
2023-07-10T20:11:27.664Z,24.33
2023-07-10T20:15:42.795Z,24.16
2023-07-10T20:20:05.632Z,24.01
2023-07-10T20:24:30.477Z,23.90
2023-07-10T20:28:52.876Z,23.79
2023-07-10T20:33:14.474Z,23.68
2023-07-10T20:37:34.658Z,23.58
2023-07-10T20:41:58.722Z,23.48
2023-07-10T20:46:07.393Z,23.38
2023-07-10T20:50:15.335Z,23.29
2023-07-10T20:54:20.557Z,23.20
2023-07-10T20:58:28.782Z,23.13
2023-07-10T21:02:34.533Z,23.06
2023-07-10T21:06:38.687Z,22.96
2023-07-10T21:10:43.577Z,22.86
2023-07-10T21:14:50.350Z,22.79
2023-07-10T21:18:55.793Z,22.71
2023-07-10T21:22:59.604Z,22.65
2023-07-10T21:27:23.232Z,22.53
2023-07-10T21:31:29.851Z,22.44
2023-07-10T21:35:36.514Z,22.36
2023-07-10T21:39:39.599Z,22.31
2023-07-10T21:43:42.638Z,22.23
2023-07-10T21:47:46.906Z,22.17
2023-07-10T21:51:51.314Z,22.09
2023-07-10T21:55:58.325Z,22.01
2023-07-10T22:00:01.324Z,21.93
2023-07-10T22:04:11.626Z,21.85
2023-07-10T22:08:15.578Z,21.77
2023-07-10T22:12:18.633Z,21.74
2023-07-10T22:16:26.025Z,21.70
2023-07-10T22:20:41.984Z,21.65
2023-07-10T22:24:45.114Z,21.57
2023-07-10T22:28:48.505Z,21.53
2023-07-10T22:32:51.796Z,21.47
2023-07-10T22:36:56.118Z,21.38
2023-07-10T22:41:02.269Z,21.20
2023-07-10T22:45:06.107Z,21.07
2023-07-10T22:49:13.396Z,21.00
2023-07-10T22:53:18.765Z,20.87
2023-07-10T22:57:21.672Z,20.75
2023-07-10T23:01:26.401Z,20.67
2023-07-10T23:05:32.650Z,20.63
2023-07-10T23:09:37.030Z,20.57
2023-07-10T23:13:40.196Z,20.51
2023-07-10T23:17:44.093Z,20.44
2023-07-10T23:21:46.912Z,20.37
2023-07-10T23:25:51.393Z,20.27
2023-07-10T23:29:54.582Z,20.21
2023-07-10T23:33:57.491Z,20.18
2023-07-10T23:38:00.569Z,20.11
2023-07-10T23:42:05.456Z,20.06
2023-07-10T23:46:08.684Z,19.98
2023-07-10T23:50:13.257Z,19.86
2023-07-10T23:54:16.229Z,19.81
2023-07-10T23:58:20.927Z,19.78
